Myrtle Beach, South Carolina
Current Conditions -  °F | °C
As of 8:45 AM on Monday 26 Jan 2015 (Local Time) from KMYR Reporting Station
Broken Clouds Broken Clouds  
Wind Chill: 50°   Ceiling: 9000
Heat Index: 50°   Visibility: 10mi
Dew Point: 43°   Wind: 12mph
Humidity: 76%   Direction: 240°WSW
Pressure: 29.69"   Gusts: NA
Location:  33.69°N, 78.88°W
Report Text: KMYR 261345Z 24010KT 10SM BKN090 10/06 A2969
Loading
Personal Weather Stations






























Interactive Weather Map New forecast layout! Learn more

10-Day Weather Forecast

Advertisements
Track Severe Weather on mobile